createdAt,value
2023-01-28T00:02:09.570Z,38.60
2023-01-28T00:04:37.844Z,38.37
2023-01-28T00:07:05.988Z,38.43
2023-01-28T00:09:34.181Z,37.97
2023-01-28T00:12:03.695Z,37.97
2023-01-28T00:14:31.809Z,38.27
2023-01-28T00:17:00.292Z,38.93
2023-01-28T00:19:28.525Z,38.57
2023-01-28T00:21:56.759Z,38.77
2023-01-28T00:24:25.127Z,38.83
2023-01-28T00:26:53.377Z,37.60
2023-01-28T00:29:23.309Z,37.73
2023-01-28T00:31:51.654Z,37.70
2023-01-28T00:34:19.934Z,38.47
2023-01-28T00:36:57.969Z,38.07
2023-01-28T00:39:27.255Z,37.57
2023-01-28T00:41:56.041Z,38.50
2023-01-28T00:44:26.175Z,39.00
2023-01-28T00:46:54.544Z,38.33
2023-01-28T00:49:22.992Z,39.43
2023-01-28T00:51:51.132Z,39.27
2023-01-28T00:54:19.520Z,39.23
2023-01-28T00:56:47.761Z,39.10
2023-01-28T00:59:16.648Z,39.10
2023-01-28T01:01:47.060Z,38.60
2023-01-28T01:04:26.659Z,38.40
2023-01-28T01:06:55.934Z,38.93
2023-01-28T01:09:24.182Z,38.77
2023-01-28T01:11:52.661Z,38.57
2023-01-28T01:14:20.838Z,39.47
2023-01-28T01:16:50.798Z,39.07
2023-01-28T01:19:19.108Z,39.83
2023-01-28T01:21:50.735Z,40.20
2023-01-28T01:24:19.336Z,40.33
2023-01-28T01:26:47.462Z,39.27
2023-01-28T01:29:15.587Z,40.70
2023-01-28T01:31:44.059Z,40.57
2023-01-28T01:34:13.758Z,40.20
2023-01-28T01:36:44.042Z,39.73
2023-01-28T01:39:14.014Z,39.93
2023-01-28T01:41:42.398Z,40.57
2023-01-28T01:44:44.305Z,39.73
2023-01-28T01:47:12.935Z,39.67
2023-01-28T01:49:43.393Z,40.10
2023-01-28T01:52:17.334Z,40.50
2023-01-28T01:54:50.984Z,40.23
2023-01-28T01:57:25.409Z,40.00
2023-01-28T01:59:54.608Z,39.90
2023-01-28T02:02:23.246Z,40.37
2023-01-28T02:04:52.862Z,39.50
2023-01-28T02:07:21.190Z,40.30
2023-01-28T02:09:49.209Z,39.00
2023-01-28T02:12:21.596Z,39.70
2023-01-28T02:14:54.331Z,39.80
2023-01-28T02:17:23.516Z,38.83
2023-01-28T02:19:59.100Z,38.37
2023-01-28T02:22:57.650Z,39.27
2023-01-28T02:26:09.171Z,39.60
2023-01-28T02:28:45.077Z,39.50
2023-01-28T02:31:20.050Z,40.23
2023-01-28T02:33:54.057Z,39.07
2023-01-28T02:36:29.458Z,38.80
2023-01-28T02:39:03.068Z,39.27
2023-01-28T02:41:36.002Z,39.17
2023-01-28T02:44:05.464Z,40.17
2023-01-28T02:46:55.425Z,38.50
2023-01-28T02:49:28.294Z,38.50
2023-01-28T02:52:08.580Z,38.53
2023-01-28T02:54:45.037Z,38.37
2023-01-28T02:57:24.547Z,37.67
2023-01-28T03:00:02.785Z,36.80
2023-01-28T03:02:36.875Z,36.90
2023-01-28T03:05:10.876Z,36.27
2023-01-28T03:07:40.622Z,36.63
2023-01-28T03:10:13.596Z,37.20
2023-01-28T03:13:02.520Z,37.77
2023-01-28T03:16:10.885Z,37.20
2023-01-28T03:19:02.845Z,37.47
2023-01-28T03:21:52.881Z,36.37
2023-01-28T03:24:43.350Z,36.10
2023-01-28T03:27:33.323Z,36.33
2023-01-28T03:30:26.104Z,34.83
2023-01-28T03:33:54.733Z,36.40
2023-01-28T03:36:54.620Z,36.20
2023-01-28T03:39:26.341Z,35.27
2023-01-28T03:42:00.007Z,35.00
2023-01-28T03:44:46.206Z,34.37
2023-01-28T03:47:14.902Z,34.60
2023-01-28T03:49:45.874Z,34.73
2023-01-28T03:52:15.911Z,33.10
2023-01-28T03:54:44.504Z,33.20
2023-01-28T03:57:12.683Z,33.80
2023-01-28T03:59:41.427Z,35.13
2023-01-28T04:02:11.076Z,33.97
2023-01-28T04:04:39.908Z,35.70
2023-01-28T04:07:08.989Z,34.47
2023-01-28T04:09:39.272Z,34.50
2023-01-28T04:12:07.957Z,33.57
2023-01-28T04:14:36.314Z,32.77
2023-01-28T04:17:04.442Z,34.57
2023-01-28T04:19:37.212Z,33.73
2023-01-28T04:22:07.368Z,32.23
2023-01-28T04:24:35.826Z,32.80
2023-01-28T04:27:05.732Z,33.20
2023-01-28T04:29:33.742Z,34.37
2023-01-28T04:32:01.890Z,35.33
2023-01-28T04:34:29.993Z,34.40
2023-01-28T04:36:58.238Z,33.67
2023-01-28T04:39:26.337Z,35.23
2023-01-28T04:41:55.756Z,33.27
2023-01-28T04:44:25.430Z,34.27
2023-01-28T04:46:53.628Z,33.50
2023-01-28T04:49:21.842Z,33.30
2023-01-28T04:51:51.385Z,32.03
2023-01-28T04:54:19.886Z,30.93
2023-01-28T04:56:48.489Z,30.63
2023-01-28T04:59:16.751Z,28.97
2023-01-28T05:01:46.521Z,29.50
2023-01-28T05:04:15.454Z,28.30
2023-01-28T05:06:52.505Z,28.17
2023-01-28T05:09:20.668Z,29.33
2023-01-28T05:11:49.015Z,28.50
2023-01-28T05:14:17.285Z,28.87
2023-01-28T05:16:51.144Z,28.90
2023-01-28T05:19:19.277Z,29.20
2023-01-28T05:21:47.387Z,29.00
2023-01-28T05:24:15.790Z,27.93
2023-01-28T05:26:43.894Z,29.53
2023-01-28T05:29:12.402Z,30.20
2023-01-28T05:31:40.482Z,29.30
2023-01-28T05:34:10.041Z,27.63
2023-01-28T05:36:38.249Z,27.77
2023-01-28T05:39:07.909Z,27.90
2023-01-28T05:41:36.068Z,27.50
2023-01-28T05:44:04.463Z,28.80
2023-01-28T05:46:32.760Z,28.53
2023-01-28T05:49:00.788Z,27.43
2023-01-28T05:51:31.796Z,28.33
2023-01-28T05:53:59.963Z,26.90
2023-01-28T05:56:28.199Z,28.53
2023-01-28T05:58:56.641Z,28.70
2023-01-28T06:01:24.910Z,28.83
2023-01-28T06:03:53.323Z,27.70
2023-01-28T06:06:22.426Z,28.13
2023-01-28T06:08:52.562Z,27.17
2023-01-28T06:11:20.737Z,27.03
2023-01-28T06:13:48.789Z,26.13
2023-01-28T06:16:17.122Z,26.23
2023-01-28T06:18:45.205Z,27.17
2023-01-28T06:21:13.488Z,27.27
2023-01-28T06:23:41.588Z,27.30
2023-01-28T06:26:22.920Z,27.27
2023-01-28T06:28:51.258Z,25.97
2023-01-28T06:31:19.476Z,23.70
2023-01-28T06:33:48.330Z,25.60
2023-01-28T06:36:16.437Z,25.97
2023-01-28T06:38:44.476Z,25.43
2023-01-28T06:41:13.994Z,26.50
2023-01-28T06:43:42.180Z,27.97
2023-01-28T06:46:10.144Z,28.03
2023-01-28T06:48:38.290Z,26.33
2023-01-28T06:51:06.986Z,27.10
2023-01-28T06:53:35.359Z,26.77
2023-01-28T06:56:03.448Z,25.37
2023-01-28T06:58:33.380Z,25.50
2023-01-28T07:01:01.677Z,25.90
2023-01-28T07:03:29.870Z,23.53
2023-01-28T07:05:57.959Z,24.07
2023-01-28T07:08:26.087Z,25.63
2023-01-28T07:10:54.262Z,24.73
2023-01-28T07:13:22.478Z,25.93
2023-01-28T07:15:52.106Z,24.53
2023-01-28T07:18:20.476Z,23.67
2023-01-28T07:20:48.569Z,24.73
2023-01-28T07:23:16.684Z,24.27
2023-01-28T07:25:44.767Z,24.47
2023-01-28T07:28:13.234Z,24.23
2023-01-28T07:30:41.333Z,23.20
2023-01-28T07:33:10.860Z,23.73
2023-01-28T07:35:38.933Z,24.53
2023-01-28T07:38:07.197Z,23.73
2023-01-28T07:40:35.313Z,22.60
2023-01-28T07:43:03.742Z,21.87
2023-01-28T07:45:31.966Z,23.10
2023-01-28T07:48:01.581Z,23.60
2023-01-28T07:50:32.979Z,23.63
2023-01-28T07:53:03.804Z,25.30
2023-01-28T07:55:32.124Z,24.50
2023-01-28T07:58:01.420Z,26.20
2023-01-28T08:00:31.727Z,25.27
2023-01-28T08:03:01.204Z,27.10
2023-01-28T08:05:39.565Z,25.43
2023-01-28T08:08:07.861Z,25.13
2023-01-28T08:10:36.000Z,24.77
2023-01-28T08:13:03.859Z,25.97
2023-01-28T08:15:34.842Z,25.10
2023-01-28T08:18:03.594Z,25.07
2023-01-28T08:20:33.480Z,25.13
2023-01-28T08:23:09.055Z,25.10
2023-01-28T08:25:37.334Z,26.03
2023-01-28T08:28:07.076Z,25.97
2023-01-28T08:30:38.012Z,25.57
2023-01-28T08:33:07.458Z,25.17
2023-01-28T08:35:37.813Z,26.17
2023-01-28T08:38:08.113Z,26.97
2023-01-28T08:40:39.104Z,26.90
2023-01-28T08:43:07.016Z,27.40
2023-01-28T08:45:35.243Z,27.00
2023-01-28T08:48:05.301Z,26.67
2023-01-28T08:50:37.183Z,26.17
2023-01-28T08:53:07.162Z,27.13
2023-01-28T08:55:35.924Z,25.97
2023-01-28T08:58:05.100Z,25.20
2023-01-28T09:00:34.097Z,25.67
2023-01-28T09:03:04.720Z,24.37
2023-01-28T09:05:35.081Z,24.50
2023-01-28T09:08:05.088Z,24.63
2023-01-28T09:10:33.430Z,24.60
2023-01-28T09:13:06.250Z,22.80
2023-01-28T09:15:34.246Z,23.43
2023-01-28T09:18:02.976Z,22.83
2023-01-28T09:20:32.300Z,21.47
2023-01-28T09:23:02.410Z,21.93
2023-01-28T09:25:32.080Z,20.93
2023-01-28T09:28:00.479Z,19.63
2023-01-28T09:30:28.652Z,20.13
2023-01-28T09:32:58.264Z,19.90
2023-01-28T09:35:26.649Z,20.57
2023-01-28T09:37:58.902Z,18.87
2023-01-28T09:40:37.533Z,18.27
2023-01-28T09:43:27.748Z,18.20
2023-01-28T09:46:00.114Z,18.27
2023-01-28T09:48:34.779Z,19.70
2023-01-28T09:51:04.378Z,18.73
2023-01-28T09:53:38.576Z,18.53
2023-01-28T09:56:14.353Z,18.50
2023-01-28T09:58:44.077Z,17.03
2023-01-28T10:01:44.858Z,17.47
2023-01-28T10:04:24.652Z,17.57
2023-01-28T10:07:03.709Z,17.70
2023-01-28T10:09:42.557Z,17.50
2023-01-28T10:12:34.022Z,19.93
2023-01-28T10:15:40.502Z,21.60
2023-01-28T10:18:17.671Z,18.63
2023-01-28T10:20:49.962Z,18.73
2023-01-28T10:23:23.961Z,18.00
2023-01-28T10:25:52.442Z,18.13
2023-01-28T10:28:25.645Z,18.60
2023-01-28T10:30:53.902Z,18.30
2023-01-28T10:33:30.503Z,19.13
2023-01-28T10:35:58.839Z,17.20
2023-01-28T10:38:28.996Z,16.90
2023-01-28T10:41:01.550Z,16.67
2023-01-28T10:43:35.072Z,16.83
2023-01-28T10:46:08.905Z,16.23
2023-01-28T10:48:41.928Z,16.23
2023-01-28T10:51:10.562Z,15.23
2023-01-28T10:53:40.053Z,16.27
2023-01-28T10:56:11.704Z,14.43
2023-01-28T10:58:59.842Z,14.43
2023-01-28T11:01:40.209Z,15.90
2023-01-28T11:04:16.105Z,15.03
2023-01-28T11:06:44.103Z,15.33
2023-01-28T11:09:23.647Z,15.67
2023-01-28T11:11:51.577Z,14.03
2023-01-28T11:14:26.538Z,14.03
2023-01-28T11:16:56.934Z,14.40
2023-01-28T11:19:30.665Z,14.23
2023-01-28T11:21:59.678Z,15.10
2023-01-28T11:24:31.743Z,16.47
2023-01-28T11:27:02.590Z,16.53
2023-01-28T11:29:34.269Z,15.90
2023-01-28T11:32:02.680Z,14.37
2023-01-28T11:34:36.524Z,14.83
2023-01-28T11:37:12.511Z,14.60
2023-01-28T11:39:40.977Z,15.27
2023-01-28T11:42:15.819Z,15.37
2023-01-28T11:44:46.109Z,13.37
2023-01-28T11:47:27.976Z,12.90
2023-01-28T11:50:16.926Z,12.60
2023-01-28T11:53:07.674Z,13.50
2023-01-28T11:55:42.970Z,12.47
2023-01-28T11:58:24.072Z,13.73
2023-01-28T12:01:03.420Z,12.67
2023-01-28T12:03:45.912Z,11.70
2023-01-28T12:06:35.687Z,11.73
2023-01-28T12:09:14.146Z,10.17
2023-01-28T12:12:11.453Z,9.80
2023-01-28T12:15:03.071Z,9.03
2023-01-28T12:17:49.053Z,8.57
2023-01-28T12:20:26.067Z,7.53
2023-01-28T12:23:06.933Z,8.07
2023-01-28T12:25:49.992Z,7.20
2023-01-28T12:28:34.441Z,6.33
2023-01-28T12:31:14.323Z,6.13
2023-01-28T12:34:03.771Z,6.63
2023-01-28T12:36:41.902Z,6.33
2023-01-28T12:39:20.961Z,4.87
2023-01-28T12:41:54.054Z,5.03
2023-01-28T12:44:26.721Z,4.80
2023-01-28T12:46:59.611Z,5.00
2023-01-28T12:49:33.626Z,5.20
2023-01-28T12:52:10.297Z,4.47
2023-01-28T12:54:43.918Z,5.13
2023-01-28T12:57:28.406Z,4.70
2023-01-28T13:00:06.555Z,4.10
2023-01-28T13:02:39.592Z,4.37
2023-01-28T13:05:13.655Z,4.30
2023-01-28T13:07:49.325Z,4.00
2023-01-28T13:10:24.581Z,3.87
2023-01-28T13:12:53.325Z,3.93
2023-01-28T13:15:22.377Z,3.27
2023-01-28T13:17:59.003Z,3.53
2023-01-28T13:20:47.123Z,3.40
2023-01-28T13:23:26.011Z,3.50
2023-01-28T13:25:56.996Z,3.63
2023-01-28T13:28:32.584Z,3.13
2023-01-28T13:31:05.735Z,3.63
2023-01-28T13:33:36.234Z,3.27
2023-01-28T13:36:18.519Z,3.40
2023-01-28T13:38:48.013Z,3.07
2023-01-28T13:41:16.352Z,3.50
2023-01-28T13:43:44.444Z,3.50
2023-01-28T13:46:14.876Z,3.20
2023-01-28T13:48:46.613Z,3.00
2023-01-28T13:51:21.110Z,3.50
2023-01-28T13:53:55.273Z,3.47
2023-01-28T13:56:26.768Z,3.47
2023-01-28T13:59:25.761Z,3.87
2023-01-28T14:02:15.191Z,3.30
2023-01-28T14:05:22.218Z,3.10
2023-01-28T14:08:22.260Z,3.50
2023-01-28T14:11:05.308Z,3.70
2023-01-28T14:13:58.833Z,3.20
2023-01-28T14:16:34.407Z,3.63
2023-01-28T14:19:04.052Z,3.20
2023-01-28T14:21:36.284Z,3.67
2023-01-28T14:24:06.920Z,3.30
2023-01-28T14:26:47.968Z,3.37
2023-01-28T14:29:36.740Z,3.83
2023-01-28T14:32:07.262Z,4.00
2023-01-28T14:34:38.021Z,3.70
2023-01-28T14:37:09.085Z,3.57
2023-01-28T14:39:45.499Z,3.67
2023-01-28T14:42:20.229Z,4.50
2023-01-28T14:44:54.478Z,3.97
2023-01-28T14:47:46.482Z,3.00
2023-01-28T14:50:36.557Z,3.53
2023-01-28T14:53:25.668Z,3.27
2023-01-28T14:56:00.377Z,3.73
2023-01-28T14:58:33.731Z,3.13
2023-01-28T15:01:02.828Z,3.10
2023-01-28T15:03:32.277Z,3.20
2023-01-28T15:06:05.235Z,3.60
2023-01-28T15:08:33.510Z,3.40
2023-01-28T15:11:03.980Z,3.53
2023-01-28T15:13:37.438Z,3.80
2023-01-28T15:16:07.127Z,3.90
2023-01-28T15:18:37.535Z,3.87
2023-01-28T15:21:05.861Z,3.50
2023-01-28T15:23:36.751Z,4.20
2023-01-28T15:26:13.537Z,9.50
2023-01-28T15:28:44.013Z,4.23
2023-01-28T15:31:21.899Z,4.63
2023-01-28T15:33:58.405Z,4.53
2023-01-28T15:36:27.053Z,3.83
2023-01-28T15:38:55.247Z,4.60
2023-01-28T15:41:30.648Z,4.43
2023-01-28T15:43:58.665Z,4.60
2023-01-28T15:46:26.723Z,5.23
2023-01-28T15:48:59.267Z,4.90
2023-01-28T15:51:28.903Z,5.80
2023-01-28T15:54:02.076Z,5.20
2023-01-28T15:56:31.936Z,5.23
2023-01-28T15:59:10.499Z,4.63
2023-01-28T16:01:38.469Z,4.27
2023-01-28T16:04:10.223Z,5.00
2023-01-28T16:06:41.812Z,4.07
2023-01-28T16:09:24.045Z,4.40
2023-01-28T16:11:53.613Z,3.70
2023-01-28T16:14:26.048Z,4.80
2023-01-28T16:16:55.798Z,4.73
2023-01-28T16:19:39.957Z,4.13
2023-01-28T16:22:09.830Z,4.80
2023-01-28T16:24:38.011Z,3.90
2023-01-28T16:27:20.947Z,4.20
2023-01-28T16:29:49.241Z,4.97
2023-01-28T16:32:32.418Z,4.30
2023-01-28T16:35:00.710Z,7.33
2023-01-28T16:37:29.250Z,7.43
2023-01-28T16:39:59.083Z,5.17
2023-01-28T16:42:34.156Z,8.20
2023-01-28T16:45:02.625Z,18.73
2023-01-28T16:47:31.396Z,7.07
2023-01-28T16:49:59.948Z,11.33
2023-01-28T16:52:28.805Z,6.03
2023-01-28T16:54:56.972Z,4.07
2023-01-28T16:57:25.233Z,3.60
2023-01-28T17:00:04.021Z,3.47
2023-01-28T17:02:32.187Z,3.70
2023-01-28T17:05:00.506Z,3.50
2023-01-28T17:07:28.568Z,4.47
2023-01-28T17:09:56.660Z,4.43
2023-01-28T17:12:26.169Z,4.30
2023-01-28T17:14:55.602Z,4.27
2023-01-28T17:17:23.684Z,4.30
2023-01-28T17:19:51.868Z,4.47
2023-01-28T17:22:19.903Z,4.07
2023-01-28T17:24:47.996Z,4.20
2023-01-28T17:27:15.979Z,4.00
2023-01-28T17:29:44.139Z,4.53
2023-01-28T17:32:13.709Z,3.80
2023-01-28T17:34:41.787Z,4.30
2023-01-28T17:37:10.011Z,4.63
2023-01-28T17:39:38.186Z,4.23
2023-01-28T17:42:06.410Z,4.13
2023-01-28T17:44:34.672Z,3.97
2023-01-28T17:47:04.997Z,3.40
2023-01-28T17:49:34.852Z,3.43
2023-01-28T17:52:02.945Z,3.70
2023-01-28T17:54:30.939Z,4.20
2023-01-28T17:56:59.522Z,4.83
2023-01-28T17:59:27.563Z,4.13
2023-01-28T18:01:55.613Z,4.97
2023-01-28T18:04:25.337Z,4.73
2023-01-28T18:06:54.910Z,3.87
2023-01-28T18:09:23.223Z,3.77
2023-01-28T18:11:51.370Z,3.73
2023-01-28T18:14:19.534Z,7.00
2023-01-28T18:16:47.575Z,8.07
2023-01-28T18:19:15.715Z,5.63
2023-01-28T18:21:52.540Z,5.77
2023-01-28T18:24:24.068Z,6.43
2023-01-28T18:26:58.265Z,5.03
2023-01-28T18:29:26.845Z,3.70
2023-01-28T18:31:56.365Z,3.63
2023-01-28T18:34:25.636Z,3.63
2023-01-28T18:36:53.834Z,3.90
2023-01-28T18:39:23.338Z,3.67
2023-01-28T18:41:54.025Z,4.13
2023-01-28T18:44:25.380Z,4.50
2023-01-28T18:46:54.255Z,3.37
2023-01-28T18:49:22.839Z,3.70
2023-01-28T18:51:50.951Z,3.57
2023-01-28T18:54:20.408Z,4.07
2023-01-28T18:56:52.790Z,4.13
2023-01-28T18:59:21.397Z,3.70
2023-01-28T19:01:49.860Z,3.60
2023-01-28T19:04:18.992Z,4.23
2023-01-28T19:06:47.739Z,4.50
2023-01-28T19:09:17.897Z,4.90
2023-01-28T19:11:48.322Z,4.30
2023-01-28T19:14:18.143Z,4.77
2023-01-28T19:16:46.582Z,5.77
2023-01-28T19:19:14.899Z,4.77
2023-01-28T19:21:43.220Z,4.43
2023-01-28T19:24:14.032Z,4.07
2023-01-28T19:26:45.117Z,4.47
2023-01-28T19:29:15.811Z,4.30
2023-01-28T19:31:48.873Z,4.80
2023-01-28T19:34:17.248Z,4.50
2023-01-28T19:36:45.773Z,4.57
2023-01-28T19:39:14.963Z,5.43
2023-01-28T19:41:44.676Z,5.20
2023-01-28T19:44:13.132Z,5.13
2023-01-28T19:46:41.577Z,4.67
2023-01-28T19:49:12.631Z,4.73
2023-01-28T19:51:40.618Z,5.20
2023-01-28T19:54:09.742Z,5.03
2023-01-28T19:56:38.686Z,5.07
2023-01-28T19:59:07.051Z,5.53
2023-01-28T20:01:36.077Z,5.13
2023-01-28T20:04:04.983Z,5.43
2023-01-28T20:06:35.716Z,5.70
2023-01-28T20:09:07.746Z,5.90
2023-01-28T20:11:36.563Z,6.03
2023-01-28T20:14:04.604Z,6.70
2023-01-28T20:16:34.261Z,6.83
2023-01-28T20:19:04.561Z,6.43
2023-01-28T20:21:35.221Z,6.27
2023-01-28T20:24:04.523Z,6.47
2023-01-28T20:26:34.542Z,6.60
2023-01-28T20:29:03.478Z,7.47
2023-01-28T20:31:32.907Z,7.30
2023-01-28T20:34:01.940Z,7.23
2023-01-28T20:36:31.911Z,6.50
2023-01-28T20:39:01.815Z,7.43
2023-01-28T20:41:30.225Z,7.70
2023-01-28T20:43:58.473Z,7.20
2023-01-28T20:46:28.745Z,7.73
2023-01-28T20:48:58.472Z,8.90
2023-01-28T20:51:28.558Z,9.03
2023-01-28T20:53:56.982Z,10.23
2023-01-28T20:56:29.918Z,10.50
2023-01-28T20:58:59.574Z,10.13
2023-01-28T21:01:31.011Z,11.17
2023-01-28T21:03:59.455Z,11.80
2023-01-28T21:06:28.328Z,12.37
2023-01-28T21:08:57.160Z,13.23
2023-01-28T21:11:27.664Z,14.30
2023-01-28T21:13:56.411Z,13.10
2023-01-28T21:16:25.083Z,14.27
2023-01-28T21:18:53.132Z,15.47
2023-01-28T21:21:23.014Z,16.60
2023-01-28T21:23:51.438Z,18.27
2023-01-28T21:26:20.002Z,18.33
2023-01-28T21:28:49.529Z,18.47
2023-01-28T21:31:19.339Z,19.53
2023-01-28T21:33:49.775Z,18.80
2023-01-28T21:36:18.764Z,19.60
2023-01-28T21:38:52.398Z,20.80
2023-01-28T21:41:20.791Z,19.93
2023-01-28T21:43:53.720Z,20.43
2023-01-28T21:46:22.956Z,22.27
2023-01-28T21:48:54.055Z,20.60
2023-01-28T21:51:39.433Z,21.30
2023-01-28T21:54:12.621Z,21.07
2023-01-28T21:56:40.805Z,22.23
2023-01-28T21:59:29.142Z,22.83
2023-01-28T22:01:58.752Z,24.07
2023-01-28T22:04:28.257Z,23.23
2023-01-28T22:06:56.564Z,23.23
2023-01-28T22:09:24.671Z,23.03
2023-01-28T22:11:53.086Z,22.63
2023-01-28T22:14:22.691Z,23.47
2023-01-28T22:16:51.390Z,23.20
2023-01-28T22:19:19.593Z,22.93
2023-01-28T22:21:47.655Z,22.13
2023-01-28T22:24:17.462Z,20.87
2023-01-28T22:26:47.189Z,20.97
2023-01-28T22:29:16.873Z,19.33
2023-01-28T22:31:48.624Z,20.53
2023-01-28T22:34:17.221Z,19.70
2023-01-28T22:36:46.107Z,20.17
2023-01-28T22:39:15.707Z,20.90
2023-01-28T22:41:45.136Z,19.23
2023-01-28T22:44:13.250Z,20.20
2023-01-28T22:46:41.608Z,20.20
2023-01-28T22:49:12.289Z,21.33
2023-01-28T22:51:40.362Z,23.10
2023-01-28T22:54:09.059Z,23.43
2023-01-28T22:56:37.484Z,23.23
2023-01-28T22:59:05.879Z,22.80
2023-01-28T23:01:35.557Z,22.63
2023-01-28T23:04:03.835Z,23.20
2023-01-28T23:06:34.058Z,22.73
2023-01-28T23:09:02.209Z,23.60
2023-01-28T23:11:30.730Z,22.13
2023-01-28T23:14:17.907Z,20.83
2023-01-28T23:17:03.845Z,21.33
2023-01-28T23:19:49.742Z,21.50
2023-01-28T23:22:40.941Z,20.30
2023-01-28T23:25:09.656Z,21.37
2023-01-28T23:27:37.909Z,21.27
2023-01-28T23:30:10.528Z,22.13
2023-01-28T23:32:39.958Z,22.33
2023-01-28T23:35:08.757Z,22.73
2023-01-28T23:37:39.068Z,24.17
2023-01-28T23:40:08.382Z,24.43
2023-01-28T23:42:38.471Z,24.60
2023-01-28T23:45:08.511Z,25.47
2023-01-28T23:47:36.966Z,25.37
2023-01-28T23:50:05.808Z,26.40
2023-01-28T23:52:35.515Z,27.37
2023-01-28T23:55:05.699Z,28.47
2023-01-28T23:57:36.738Z,27.77
